createdAt,value
2022-12-29T00:01:22.391Z,88.12
2022-12-29T00:03:48.978Z,85.43
2022-12-29T00:06:15.394Z,85.46
2022-12-29T00:08:42.114Z,83.64
2022-12-29T00:11:13.258Z,85.58
2022-12-29T00:13:59.043Z,86.43
2022-12-29T00:16:25.696Z,82.55
2022-12-29T00:18:52.367Z,85.17
2022-12-29T00:21:39.167Z,81.98
2022-12-29T00:24:24.493Z,81.62
2022-12-29T00:27:30.518Z,85.48
2022-12-29T00:30:15.784Z,84.46
2022-12-29T00:33:00.575Z,88.51
2022-12-29T00:35:31.414Z,86.23
2022-12-29T00:38:18.413Z,83.30
2022-12-29T00:41:03.259Z,83.29
2022-12-29T00:43:48.401Z,85.39
2022-12-29T00:46:19.608Z,84.83
2022-12-29T00:49:04.977Z,81.85
2022-12-29T00:51:31.259Z,83.16
2022-12-29T00:53:57.562Z,85.55
2022-12-29T00:56:23.997Z,83.70
2022-12-29T00:58:50.533Z,84.59
2022-12-29T01:01:17.036Z,82.75
2022-12-29T01:03:44.501Z,81.26
2022-12-29T01:06:11.607Z,80.21
2022-12-29T01:08:38.564Z,83.10
2022-12-29T01:11:10.218Z,81.28
2022-12-29T01:13:46.813Z,82.91
2022-12-29T01:16:13.304Z,81.19
2022-12-29T01:18:40.097Z,80.21
2022-12-29T01:21:09.864Z,83.48
2022-12-29T01:23:36.420Z,80.90
2022-12-29T01:26:10.174Z,78.31
2022-12-29T01:28:36.661Z,79.69
2022-12-29T01:31:03.034Z,78.38
2022-12-29T01:33:29.382Z,81.88
2022-12-29T01:35:55.884Z,79.60
2022-12-29T01:38:22.292Z,80.43
2022-12-29T01:40:48.650Z,76.79
2022-12-29T01:43:15.929Z,77.62
2022-12-29T01:45:45.081Z,78.51
2022-12-29T01:48:12.780Z,79.32
2022-12-29T01:50:41.604Z,77.52
2022-12-29T01:53:29.438Z,77.71
2022-12-29T01:55:58.110Z,79.33
2022-12-29T01:58:27.916Z,80.64
2022-12-29T02:00:54.315Z,82.21
2022-12-29T02:03:22.687Z,80.87
2022-12-29T02:05:53.704Z,78.15
2022-12-29T02:08:22.613Z,80.46
2022-12-29T02:10:49.069Z,81.44
2022-12-29T02:13:18.550Z,82.82
2022-12-29T02:15:51.129Z,81.33
2022-12-29T02:18:17.401Z,80.89
2022-12-29T02:20:47.666Z,82.65
2022-12-29T02:23:36.027Z,80.90
2022-12-29T02:26:19.880Z,80.22
2022-12-29T02:29:05.395Z,79.41
2022-12-29T02:31:42.051Z,81.52
2022-12-29T02:34:31.885Z,83.79
2022-12-29T02:37:11.360Z,83.69
2022-12-29T02:39:37.878Z,81.81
2022-12-29T02:42:10.504Z,83.83
2022-12-29T02:44:55.956Z,86.40
2022-12-29T02:47:51.687Z,80.07
2022-12-29T02:50:22.076Z,82.80
2022-12-29T02:52:54.016Z,83.75
2022-12-29T02:55:20.488Z,83.89
2022-12-29T02:57:47.322Z,82.50
2022-12-29T03:00:15.245Z,82.72
2022-12-29T03:02:54.574Z,82.81
2022-12-29T03:05:34.864Z,81.94
2022-12-29T03:08:01.426Z,85.41
2022-12-29T03:10:42.298Z,83.82
2022-12-29T03:13:36.571Z,79.98
2022-12-29T03:16:26.163Z,80.35
2022-12-29T03:19:02.114Z,81.57
2022-12-29T03:21:52.701Z,80.42
2022-12-29T03:24:21.503Z,82.68
2022-12-29T03:26:48.491Z,82.00
2022-12-29T03:29:16.246Z,82.25
2022-12-29T03:31:43.563Z,81.67
2022-12-29T03:34:10.771Z,81.02
2022-12-29T03:36:43.404Z,81.13
2022-12-29T03:39:12.883Z,80.91
2022-12-29T03:41:41.079Z,80.29
2022-12-29T03:44:07.680Z,79.87
2022-12-29T03:46:34.296Z,79.32
2022-12-29T03:49:00.921Z,81.55
2022-12-29T03:51:27.384Z,79.57
2022-12-29T03:53:53.870Z,78.93
2022-12-29T03:56:20.364Z,77.94
2022-12-29T03:58:46.857Z,78.68
2022-12-29T04:01:13.167Z,79.34
2022-12-29T04:03:40.816Z,81.00
2022-12-29T04:06:08.542Z,84.94
2022-12-29T04:08:35.002Z,81.02
2022-12-29T04:11:01.499Z,79.30
2022-12-29T04:13:28.662Z,84.92
2022-12-29T04:15:55.041Z,85.03
2022-12-29T04:18:21.531Z,81.37
2022-12-29T04:21:04.541Z,78.11
2022-12-29T04:23:31.794Z,78.98
2022-12-29T04:25:58.140Z,79.46
2022-12-29T04:28:24.500Z,77.87
2022-12-29T04:30:51.068Z,81.70
2022-12-29T04:33:17.536Z,79.15
2022-12-29T04:35:45.863Z,77.70
2022-12-29T04:38:12.237Z,80.62
2022-12-29T04:40:39.628Z,83.75
2022-12-29T04:43:06.430Z,80.52
2022-12-29T04:45:34.015Z,80.17
2022-12-29T04:48:01.068Z,79.37
2022-12-29T04:50:27.510Z,81.57
2022-12-29T04:52:54.170Z,79.13
2022-12-29T04:55:20.573Z,81.25
2022-12-29T04:57:47.170Z,79.84
2022-12-29T05:00:14.559Z,79.51
2022-12-29T05:02:41.243Z,78.46
2022-12-29T05:05:08.030Z,80.65
2022-12-29T05:07:34.907Z,80.32
2022-12-29T05:10:01.338Z,79.66
2022-12-29T05:12:30.912Z,78.54
2022-12-29T05:14:57.554Z,78.30
2022-12-29T05:17:23.940Z,79.55
2022-12-29T05:19:50.194Z,81.85
2022-12-29T05:22:16.687Z,84.82
2022-12-29T05:24:44.888Z,83.50
2022-12-29T05:27:11.176Z,85.40
2022-12-29T05:29:37.502Z,86.78
2022-12-29T05:32:03.931Z,87.66
2022-12-29T05:34:30.574Z,83.33
2022-12-29T05:36:56.931Z,81.20
2022-12-29T05:39:23.660Z,85.05
2022-12-29T05:41:50.373Z,86.94
2022-12-29T05:44:16.927Z,86.33
2022-12-29T05:46:44.745Z,83.78
2022-12-29T05:49:11.442Z,88.17
2022-12-29T05:51:37.779Z,87.20
2022-12-29T05:54:04.201Z,85.75
2022-12-29T05:56:30.551Z,86.67
2022-12-29T05:58:56.983Z,83.76
2022-12-29T06:01:23.456Z,83.48
2022-12-29T06:03:50.172Z,84.51
2022-12-29T06:06:17.213Z,87.48
2022-12-29T06:08:43.504Z,90.38
2022-12-29T06:11:10.270Z,90.50
2022-12-29T06:13:36.765Z,89.32
2022-12-29T06:16:03.431Z,85.28
2022-12-29T06:18:29.985Z,86.42
2022-12-29T06:21:00.542Z,85.49
2022-12-29T06:23:26.859Z,85.27
2022-12-29T06:25:53.171Z,87.29
2022-12-29T06:28:19.456Z,81.18
2022-12-29T06:30:46.542Z,84.25
2022-12-29T06:33:13.530Z,83.38
2022-12-29T06:35:40.804Z,80.45
2022-12-29T06:38:07.264Z,80.68
2022-12-29T06:40:33.724Z,80.00
2022-12-29T06:43:00.131Z,81.44
2022-12-29T06:45:26.502Z,78.50
2022-12-29T06:47:52.833Z,79.81
2022-12-29T06:50:19.275Z,79.35
2022-12-29T06:52:45.623Z,79.04
2022-12-29T06:55:11.930Z,80.09
2022-12-29T06:57:38.227Z,79.72
2022-12-29T07:00:05.852Z,78.79
2022-12-29T07:02:32.360Z,78.56
2022-12-29T07:04:58.865Z,79.15
2022-12-29T07:07:25.343Z,75.88
2022-12-29T07:09:51.713Z,77.81
2022-12-29T07:12:18.051Z,77.89
2022-12-29T07:14:44.495Z,79.16
2022-12-29T07:17:11.154Z,78.87
2022-12-29T07:19:37.755Z,79.20
2022-12-29T07:22:04.079Z,76.26
2022-12-29T07:24:30.945Z,74.88
2022-12-29T07:26:57.422Z,76.40
2022-12-29T07:29:24.027Z,77.45
2022-12-29T07:31:50.367Z,74.83
2022-12-29T07:34:16.787Z,76.48
2022-12-29T07:36:43.618Z,73.64
2022-12-29T07:39:10.088Z,75.41
2022-12-29T07:41:36.366Z,74.69
2022-12-29T07:44:02.645Z,73.30
2022-12-29T07:46:56.278Z,76.93
2022-12-29T07:49:15.344Z,76.26
2022-12-29T07:51:41.698Z,75.29
2022-12-29T07:54:08.034Z,74.67
2022-12-29T07:56:34.375Z,74.76
2022-12-29T07:59:00.736Z,71.77
2022-12-29T08:01:27.194Z,73.54
2022-12-29T08:03:57.345Z,77.31
2022-12-29T08:06:24.158Z,74.98
2022-12-29T08:08:50.567Z,75.50
2022-12-29T08:11:17.082Z,74.18
2022-12-29T08:13:43.507Z,73.65
2022-12-29T08:16:09.967Z,71.70
2022-12-29T08:18:36.560Z,71.93
2022-12-29T08:21:06.607Z,74.16
2022-12-29T08:23:32.986Z,72.35
2022-12-29T08:26:04.031Z,70.36
2022-12-29T08:28:30.736Z,71.99
2022-12-29T08:31:01.284Z,68.87
2022-12-29T08:33:28.010Z,73.57
2022-12-29T08:36:00.781Z,78.22
2022-12-29T08:38:27.982Z,76.31
2022-12-29T08:40:54.633Z,80.65
2022-12-29T08:43:20.989Z,77.14
2022-12-29T08:45:47.383Z,78.54
2022-12-29T08:48:13.813Z,78.54
2022-12-29T08:50:40.286Z,79.08
2022-12-29T08:53:06.783Z,78.38
2022-12-29T08:55:33.158Z,75.12
2022-12-29T08:57:59.598Z,75.74
2022-12-29T09:00:26.491Z,75.86
2022-12-29T09:02:53.217Z,78.67
2022-12-29T09:05:19.870Z,74.24
2022-12-29T09:07:46.416Z,74.48
2022-12-29T09:10:12.986Z,81.90
2022-12-29T09:12:39.426Z,79.26
2022-12-29T09:15:06.768Z,79.46
2022-12-29T09:17:43.380Z,75.50
2022-12-29T09:20:10.492Z,78.47
2022-12-29T09:22:37.238Z,77.67
2022-12-29T09:25:04.052Z,78.73
2022-12-29T09:27:31.072Z,76.45
2022-12-29T09:29:57.585Z,75.44
2022-12-29T09:32:24.952Z,77.99
2022-12-29T09:34:52.963Z,79.93
2022-12-29T09:37:19.435Z,78.56
2022-12-29T09:39:52.133Z,80.11
2022-12-29T09:42:26.207Z,77.82
2022-12-29T09:45:01.612Z,75.76
2022-12-29T09:47:28.727Z,77.71
2022-12-29T09:49:57.429Z,76.51
2022-12-29T09:52:26.864Z,73.87
2022-12-29T09:55:03.828Z,73.78
2022-12-29T09:57:48.365Z,73.42
2022-12-29T10:00:17.893Z,73.33
2022-12-29T10:02:47.473Z,73.39
2022-12-29T10:05:19.051Z,73.08
2022-12-29T10:07:51.665Z,73.20
2022-12-29T10:10:30.387Z,73.35
2022-12-29T10:13:02.950Z,67.88
2022-12-29T10:15:48.116Z,72.04
2022-12-29T10:18:37.676Z,68.62
2022-12-29T10:21:18.606Z,70.07
2022-12-29T10:23:52.344Z,68.21
2022-12-29T10:26:22.698Z,69.94
2022-12-29T10:28:58.706Z,71.49
2022-12-29T10:31:28.225Z,69.50
2022-12-29T10:34:04.248Z,71.52
2022-12-29T10:36:33.607Z,69.21
2022-12-29T10:39:14.075Z,67.57
2022-12-29T10:41:45.659Z,66.17
2022-12-29T10:44:15.206Z,68.34
2022-12-29T10:46:41.571Z,71.29
2022-12-29T10:49:18.025Z,69.08
2022-12-29T10:51:48.859Z,69.47
2022-12-29T10:54:21.315Z,66.66
2022-12-29T10:56:53.061Z,67.93
2022-12-29T10:59:24.347Z,66.38
2022-12-29T11:01:57.128Z,66.12
2022-12-29T11:04:34.394Z,68.01
2022-12-29T11:07:01.748Z,63.77
2022-12-29T11:09:48.688Z,64.21
2022-12-29T11:12:21.477Z,65.88
2022-12-29T11:14:48.269Z,66.48
2022-12-29T11:17:19.331Z,65.76
2022-12-29T11:19:46.151Z,65.51
2022-12-29T11:22:15.301Z,63.21
2022-12-29T11:24:46.866Z,63.28
2022-12-29T11:27:16.703Z,61.66
2022-12-29T11:29:45.513Z,61.43
2022-12-29T11:32:14.133Z,63.79
2022-12-29T11:34:40.907Z,63.81
2022-12-29T11:37:10.824Z,62.44
2022-12-29T11:39:57.836Z,62.69
2022-12-29T11:42:32.003Z,63.21
2022-12-29T11:45:10.505Z,62.02
2022-12-29T11:47:37.726Z,61.70
2022-12-29T11:50:07.488Z,64.72
2022-12-29T11:52:36.115Z,62.36
2022-12-29T11:55:05.485Z,60.48
2022-12-29T11:57:34.547Z,62.53
2022-12-29T12:00:02.481Z,60.71
2022-12-29T12:02:47.847Z,61.31
2022-12-29T12:05:17.886Z,64.29
2022-12-29T12:07:47.161Z,64.62
2022-12-29T12:10:19.282Z,58.83
2022-12-29T12:12:49.595Z,60.45
2022-12-29T12:15:19.599Z,61.29
2022-12-29T12:18:03.599Z,60.11
2022-12-29T12:20:47.062Z,59.22
2022-12-29T12:23:19.945Z,61.99
2022-12-29T12:25:51.312Z,61.33
2022-12-29T12:28:36.311Z,63.18
2022-12-29T12:31:07.990Z,63.07
2022-12-29T12:33:43.182Z,64.75
2022-12-29T12:36:16.440Z,64.40
2022-12-29T12:38:55.045Z,63.96
2022-12-29T12:41:40.375Z,63.31
2022-12-29T12:44:18.937Z,63.63
2022-12-29T12:47:05.491Z,62.16
2022-12-29T12:49:41.122Z,65.02
2022-12-29T12:52:10.555Z,64.14
2022-12-29T12:54:52.746Z,65.12
2022-12-29T12:57:37.480Z,66.91
2022-12-29T13:00:10.287Z,66.64
2022-12-29T13:02:52.048Z,66.55
2022-12-29T13:05:51.026Z,67.20
2022-12-29T13:08:29.396Z,67.95
2022-12-29T13:11:10.908Z,68.14
2022-12-29T13:13:40.374Z,66.04
2022-12-29T13:16:14.629Z,65.79
2022-12-29T13:19:00.339Z,64.65
2022-12-29T13:21:35.532Z,65.03
2022-12-29T13:24:22.062Z,64.51
2022-12-29T13:26:51.598Z,64.54
2022-12-29T13:29:21.266Z,65.47
2022-12-29T13:31:47.732Z,66.06
2022-12-29T13:34:14.151Z,66.32
2022-12-29T13:36:45.714Z,66.47
2022-12-29T13:39:21.297Z,65.95
2022-12-29T13:41:58.227Z,62.95
2022-12-29T13:44:28.033Z,64.66
2022-12-29T13:46:57.314Z,68.44
2022-12-29T13:49:27.238Z,72.04
2022-12-29T13:52:05.729Z,70.83
2022-12-29T13:54:43.841Z,71.02
2022-12-29T13:57:29.048Z,70.82
2022-12-29T14:00:00.639Z,75.18
2022-12-29T14:02:45.951Z,76.42
2022-12-29T14:05:21.882Z,78.15
2022-12-29T14:07:49.125Z,77.95
2022-12-29T14:10:30.043Z,80.50
2022-12-29T14:13:05.539Z,82.22
2022-12-29T14:15:32.419Z,82.88
2022-12-29T14:18:25.231Z,86.14
2022-12-29T14:20:56.645Z,80.53
2022-12-29T14:23:35.111Z,80.74
2022-12-29T14:26:07.459Z,85.82
2022-12-29T14:28:38.356Z,81.80
2022-12-29T14:31:05.723Z,80.35
2022-12-29T14:33:33.845Z,81.29
2022-12-29T14:36:39.498Z,80.57
2022-12-29T14:39:25.905Z,80.15
2022-12-29T14:42:04.193Z,78.02
2022-12-29T14:44:31.079Z,78.49
2022-12-29T14:46:57.651Z,75.63
2022-12-29T14:49:26.550Z,76.74
2022-12-29T14:51:54.828Z,77.84
2022-12-29T14:54:39.601Z,76.67
2022-12-29T14:57:08.357Z,75.52
2022-12-29T14:59:36.324Z,73.52
2022-12-29T15:02:06.131Z,77.99
2022-12-29T15:04:34.135Z,76.99
2022-12-29T15:07:01.302Z,74.48
2022-12-29T15:09:34.756Z,76.60
2022-12-29T15:12:20.496Z,74.24
2022-12-29T15:14:51.352Z,76.07
2022-12-29T15:17:23.924Z,76.02
2022-12-29T15:19:50.341Z,78.79
2022-12-29T15:22:17.005Z,74.10
2022-12-29T15:24:44.331Z,74.55
2022-12-29T15:27:13.949Z,72.69
2022-12-29T15:29:45.200Z,75.65
2022-12-29T15:32:22.540Z,71.61
2022-12-29T15:34:50.781Z,72.01
2022-12-29T15:37:22.235Z,71.60
2022-12-29T15:39:50.485Z,71.93
2022-12-29T15:42:27.888Z,71.19
2022-12-29T15:44:58.178Z,69.20
2022-12-29T15:47:35.797Z,69.03
2022-12-29T15:50:06.996Z,73.82
2022-12-29T15:52:34.433Z,72.60
2022-12-29T15:55:02.195Z,75.13
2022-12-29T15:57:30.678Z,77.59
2022-12-29T15:59:57.125Z,77.02
2022-12-29T16:02:24.510Z,77.00
2022-12-29T16:05:16.614Z,76.14
2022-12-29T16:07:41.913Z,74.16
2022-12-29T16:10:25.881Z,73.06
2022-12-29T16:12:52.328Z,72.95
2022-12-29T16:15:19.153Z,73.24
2022-12-29T16:17:51.650Z,74.26
2022-12-29T16:20:20.320Z,72.24
2022-12-29T16:22:49.342Z,73.43
2022-12-29T16:25:27.355Z,72.33
2022-12-29T16:27:54.181Z,72.65
2022-12-29T16:30:27.914Z,72.11
2022-12-29T16:33:01.715Z,72.02
2022-12-29T16:35:31.982Z,71.84
2022-12-29T16:38:07.879Z,72.91
2022-12-29T16:40:34.205Z,70.71
2022-12-29T16:43:05.174Z,70.51
2022-12-29T16:45:46.796Z,70.37
2022-12-29T16:48:16.187Z,68.75
2022-12-29T16:50:43.807Z,68.72
2022-12-29T16:53:22.333Z,66.79
2022-12-29T16:55:49.415Z,70.27
2022-12-29T16:58:22.382Z,68.99
2022-12-29T17:00:49.013Z,69.11
2022-12-29T17:03:16.441Z,69.33
2022-12-29T17:05:42.927Z,67.95
2022-12-29T17:08:23.953Z,68.84
2022-12-29T17:11:14.092Z,69.00
2022-12-29T17:13:40.630Z,67.35
2022-12-29T17:16:08.371Z,67.92
2022-12-29T17:18:35.207Z,67.90
2022-12-29T17:21:03.016Z,67.16
2022-12-29T17:23:31.405Z,66.98
2022-12-29T17:25:58.047Z,66.18
2022-12-29T17:28:30.541Z,68.30
2022-12-29T17:31:00.988Z,66.44
2022-12-29T17:33:28.521Z,68.28
2022-12-29T17:35:55.868Z,68.50
2022-12-29T17:38:30.015Z,67.89
2022-12-29T17:40:56.874Z,70.10
2022-12-29T17:43:23.474Z,68.46
2022-12-29T17:45:53.885Z,68.05
2022-12-29T17:48:20.381Z,67.45
2022-12-29T17:50:48.081Z,70.23
2022-12-29T17:53:15.616Z,69.43
2022-12-29T17:55:41.997Z,70.32
2022-12-29T17:58:14.975Z,67.77
2022-12-29T18:00:41.514Z,71.24
2022-12-29T18:03:09.302Z,73.42
2022-12-29T18:05:35.769Z,74.41
2022-12-29T18:08:02.479Z,74.96
2022-12-29T18:10:30.698Z,72.68
2022-12-29T18:12:59.408Z,70.24
2022-12-29T18:15:27.343Z,68.46
2022-12-29T18:18:10.147Z,70.72
2022-12-29T18:20:36.716Z,68.04
2022-12-29T18:23:03.215Z,67.82
2022-12-29T18:25:35.616Z,67.51
2022-12-29T18:28:02.008Z,68.22
2022-12-29T18:30:28.632Z,67.34
2022-12-29T18:32:55.493Z,70.42
2022-12-29T18:35:42.714Z,73.08
2022-12-29T18:38:09.139Z,72.42
2022-12-29T18:40:36.549Z,72.41
2022-12-29T18:43:03.179Z,70.82
2022-12-29T18:45:31.413Z,70.46
2022-12-29T18:47:58.357Z,71.38
2022-12-29T18:50:24.820Z,71.25
2022-12-29T18:52:51.513Z,70.97
2022-12-29T18:55:20.755Z,70.82
2022-12-29T18:57:48.679Z,69.02
2022-12-29T19:00:17.042Z,69.64
2022-12-29T19:02:43.976Z,67.99
2022-12-29T19:05:19.557Z,68.96
2022-12-29T19:07:48.036Z,70.07
2022-12-29T19:10:14.773Z,69.70
2022-12-29T19:12:41.385Z,67.64
2022-12-29T19:15:13.525Z,67.94
2022-12-29T19:17:39.955Z,68.42
2022-12-29T19:20:07.217Z,66.85
2022-12-29T19:22:33.553Z,68.75
2022-12-29T19:25:00.485Z,65.92
2022-12-29T19:27:27.257Z,66.14
2022-12-29T19:29:53.601Z,66.50
2022-12-29T19:32:20.075Z,67.64
2022-12-29T19:34:48.721Z,67.37
2022-12-29T19:37:15.175Z,67.35
2022-12-29T19:39:41.649Z,67.76
2022-12-29T19:42:08.098Z,67.20
2022-12-29T19:44:34.662Z,65.35
2022-12-29T19:47:01.165Z,68.94
2022-12-29T19:49:27.849Z,68.19
2022-12-29T19:51:55.291Z,67.51
2022-12-29T19:54:22.001Z,67.87
2022-12-29T19:56:50.612Z,68.07
2022-12-29T19:59:17.689Z,70.54
2022-12-29T20:01:44.518Z,66.87
2022-12-29T20:04:13.312Z,65.49
2022-12-29T20:06:39.724Z,67.53
2022-12-29T20:09:06.397Z,66.94
2022-12-29T20:11:34.060Z,69.79
2022-12-29T20:14:02.249Z,76.14
2022-12-29T20:16:31.108Z,72.93
2022-12-29T20:18:57.783Z,78.20
2022-12-29T20:21:24.595Z,84.01
2022-12-29T20:23:52.680Z,84.17
2022-12-29T20:26:21.169Z,79.98
2022-12-29T20:28:48.163Z,80.02
2022-12-29T20:31:19.502Z,77.59
2022-12-29T20:33:46.617Z,75.04
2022-12-29T20:36:24.635Z,77.32
2022-12-29T20:38:51.717Z,75.36
2022-12-29T20:41:18.249Z,77.76
2022-12-29T20:43:46.225Z,81.97
2022-12-29T20:46:18.159Z,82.04
2022-12-29T20:48:47.785Z,83.03
2022-12-29T20:51:15.070Z,79.47
2022-12-29T20:53:41.775Z,76.95
2022-12-29T20:56:11.551Z,79.36
2022-12-29T20:59:00.304Z,81.40
2022-12-29T21:01:25.252Z,76.34
2022-12-29T21:03:51.804Z,76.05
2022-12-29T21:06:23.004Z,76.72
2022-12-29T21:08:50.400Z,79.09
2022-12-29T21:11:22.364Z,75.46
2022-12-29T21:13:49.804Z,73.49
2022-12-29T21:16:18.799Z,71.73
2022-12-29T21:18:46.155Z,71.60
2022-12-29T21:21:15.504Z,76.87
2022-12-29T21:23:42.103Z,74.89
2022-12-29T21:26:24.397Z,75.64
2022-12-29T21:28:51.509Z,76.92
2022-12-29T21:31:24.325Z,76.90
2022-12-29T21:33:51.514Z,78.22
2022-12-29T21:36:27.012Z,82.75
2022-12-29T21:38:53.973Z,78.75
2022-12-29T21:41:21.922Z,76.42
2022-12-29T21:44:08.374Z,76.97
2022-12-29T21:46:37.556Z,78.78
2022-12-29T21:49:04.987Z,82.88
2022-12-29T21:51:50.422Z,79.86
2022-12-29T21:54:38.229Z,79.12
2022-12-29T21:57:05.379Z,78.91
2022-12-29T21:59:50.860Z,76.33
2022-12-29T22:02:43.456Z,74.73
2022-12-29T22:05:30.391Z,76.51
2022-12-29T22:08:15.409Z,70.88
2022-12-29T22:11:02.708Z,73.85
2022-12-29T22:13:33.444Z,74.91
2022-12-29T22:16:00.302Z,76.96
2022-12-29T22:18:27.564Z,72.62
2022-12-29T22:20:54.807Z,70.64
2022-12-29T22:23:25.552Z,69.66
2022-12-29T22:25:52.541Z,69.53
2022-12-29T22:28:19.940Z,67.80
2022-12-29T22:30:47.095Z,72.39
2022-12-29T22:33:14.120Z,73.67
2022-12-29T22:35:41.443Z,71.22
2022-12-29T22:38:08.447Z,71.62
2022-12-29T22:40:36.095Z,70.88
2022-12-29T22:43:07.993Z,71.15
2022-12-29T22:45:38.953Z,69.72
2022-12-29T22:48:05.969Z,68.40
2022-12-29T22:50:33.178Z,69.45
2022-12-29T22:52:59.968Z,70.64
2022-12-29T22:55:26.648Z,72.40
2022-12-29T22:57:55.581Z,74.94
2022-12-29T23:00:22.609Z,73.61
2022-12-29T23:02:49.478Z,72.20
2022-12-29T23:05:16.306Z,73.50
2022-12-29T23:07:43.531Z,75.13
2022-12-29T23:10:10.107Z,72.25
2022-12-29T23:12:36.595Z,72.27
2022-12-29T23:15:03.081Z,72.47
2022-12-29T23:17:29.973Z,73.18
2022-12-29T23:19:56.353Z,75.57
2022-12-29T23:22:23.314Z,74.10
2022-12-29T23:24:49.622Z,71.98
2022-12-29T23:27:15.959Z,71.92
2022-12-29T23:29:42.454Z,71.68
2022-12-29T23:32:08.982Z,73.05
2022-12-29T23:34:35.301Z,73.64
2022-12-29T23:37:01.882Z,72.21
2022-12-29T23:39:29.192Z,74.58
2022-12-29T23:41:55.550Z,73.16
2022-12-29T23:44:21.975Z,74.60
2022-12-29T23:46:48.579Z,74.23
2022-12-29T23:49:15.152Z,72.39
2022-12-29T23:51:42.005Z,71.64
2022-12-29T23:54:08.398Z,72.90
2022-12-29T23:56:34.697Z,71.67
2022-12-29T23:59:03.431Z,70.14
